createdAt,value
2022-08-22T00:02:09.623Z,101096.75
2022-08-22T00:02:47.467Z,101035.84
2022-08-22T00:02:47.979Z,101059.47
2022-08-22T00:03:07.953Z,101068.38
2022-08-22T00:03:12.457Z,101052.75
2022-08-22T00:04:57.212Z,101103.84
2022-08-22T00:07:46.590Z,101102.63
2022-08-22T00:10:25.912Z,101117.00
2022-08-22T00:12:58.407Z,101109.78
2022-08-22T00:15:43.444Z,101096.88
2022-08-22T00:18:18.468Z,101105.59
2022-08-22T00:21:16.993Z,101096.75
2022-08-22T00:24:00.706Z,101092.09
2022-08-22T00:26:30.374Z,101090.41
2022-08-22T00:29:03.724Z,101093.63
2022-08-22T00:31:40.033Z,101096.72
2022-08-22T00:34:32.857Z,101089.88
2022-08-22T00:37:04.674Z,101099.44
2022-08-22T00:39:46.651Z,101098.72
2022-08-22T00:42:31.666Z,101100.16
2022-08-22T00:45:20.545Z,101102.16
2022-08-22T00:47:56.957Z,101103.25
2022-08-22T00:50:38.928Z,101099.66
2022-08-22T00:53:37.040Z,101098.59
2022-08-22T00:56:24.969Z,101098.09
2022-08-22T00:59:31.372Z,101094.13
2022-08-22T01:02:14.462Z,101091.94
2022-08-22T01:05:02.820Z,101101.16
2022-08-22T01:07:51.021Z,101107.41
2022-08-22T01:10:39.169Z,101104.53
2022-08-22T01:13:39.953Z,101110.53
2022-08-22T01:16:25.344Z,101111.09
2022-08-22T01:18:52.557Z,101105.31
2022-08-22T01:21:51.711Z,101121.22
2022-08-22T01:25:02.811Z,101122.19
2022-08-22T01:27:59.357Z,101121.59
2022-08-22T01:30:39.251Z,101120.88
2022-08-22T01:33:36.957Z,101124.53
2022-08-22T01:36:12.497Z,101125.03
2022-08-22T01:38:58.508Z,101134.03
2022-08-22T01:41:46.754Z,101135.19
2022-08-22T01:44:32.330Z,101132.78
2022-08-22T01:47:36.809Z,101131.59
2022-08-22T01:50:26.482Z,101127.47
2022-08-22T01:53:05.088Z,101122.78
2022-08-22T01:55:52.435Z,101125.63
2022-08-22T01:58:27.358Z,101125.63
2022-08-22T02:01:08.908Z,101125.13
2022-08-22T02:03:40.358Z,101125.41
2022-08-22T02:06:17.329Z,101129.53
2022-08-22T02:08:57.048Z,101117.28
2022-08-22T02:11:48.276Z,101120.78
2022-08-22T02:14:33.332Z,101121.00
2022-08-22T02:17:26.488Z,101125.66
2022-08-22T02:20:20.260Z,101121.44
2022-08-22T02:22:53.127Z,101123.13
2022-08-22T02:25:28.968Z,101117.09
2022-08-22T02:28:15.829Z,101113.66
2022-08-22T02:30:50.933Z,101120.72
2022-08-22T02:33:47.800Z,101117.09
2022-08-22T02:36:31.705Z,101119.97
2022-08-22T02:39:18.142Z,101120.91
2022-08-22T02:41:49.395Z,101120.09
2022-08-22T02:44:22.391Z,101126.19
2022-08-22T02:47:07.009Z,101114.94
2022-08-22T02:49:43.808Z,101108.84
2022-08-22T02:52:18.108Z,101119.97
2022-08-22T02:54:55.702Z,101113.25
2022-08-22T02:57:58.953Z,101117.56
2022-08-22T03:00:32.688Z,101113.50
2022-08-22T03:03:14.543Z,101124.75
2022-08-22T03:05:50.668Z,101124.75
2022-08-22T03:08:21.690Z,101118.50
2022-08-22T03:11:14.406Z,101115.66
2022-08-22T03:14:10.264Z,101111.84
2022-08-22T03:17:03.506Z,101116.91
2022-08-22T03:20:00.564Z,101105.63
2022-08-22T03:22:36.203Z,101100.97
2022-08-22T03:25:42.811Z,101110.34
2022-08-22T03:28:18.385Z,101107.31
2022-08-22T03:30:57.870Z,101107.00
2022-08-22T03:33:31.036Z,101112.03
2022-08-22T03:36:06.625Z,101107.63
2022-08-22T03:38:33.248Z,101109.09
2022-08-22T03:41:03.273Z,101105.50
2022-08-22T03:43:57.209Z,101112.03
2022-08-22T03:46:35.125Z,101106.25
2022-08-22T03:49:24.233Z,101107.44
2022-08-22T03:52:13.891Z,101107.56
2022-08-22T03:54:43.890Z,101104.19
2022-08-22T03:57:32.065Z,101114.88
2022-08-22T04:00:11.389Z,101116.56
2022-08-22T04:03:14.823Z,101111.19
2022-08-22T04:05:56.946Z,101113.44
2022-08-22T04:08:26.321Z,101119.41
2022-08-22T04:11:09.779Z,101120.88
2022-08-22T04:14:04.348Z,101121.50
2022-08-22T04:16:43.340Z,101123.22
2022-08-22T04:19:32.802Z,101125.63
2022-08-22T04:22:02.749Z,101118.44
2022-08-22T04:25:07.615Z,101124.53
2022-08-22T04:28:03.110Z,101127.91
2022-08-22T04:30:44.479Z,101131.53
2022-08-22T04:33:49.979Z,101137.31
2022-08-22T04:36:23.551Z,101128.84
2022-08-22T04:39:13.149Z,101135.09
2022-08-22T04:42:00.737Z,101139.44
2022-08-22T04:44:37.685Z,101134.66
2022-08-22T04:47:31.077Z,101146.41
2022-08-22T04:50:16.544Z,101156.25
2022-08-22T04:53:07.798Z,101151.38
2022-08-22T04:55:46.741Z,101155.94
2022-08-22T04:58:22.852Z,101155.69
2022-08-22T05:01:26.869Z,101160.84
2022-08-22T05:04:03.267Z,101166.47
2022-08-22T05:06:35.449Z,101169.47
2022-08-22T05:09:05.752Z,101168.41
2022-08-22T05:11:35.291Z,101172.50
2022-08-22T05:14:07.167Z,101171.06
2022-08-22T05:16:39.605Z,101184.47
2022-08-22T05:19:28.433Z,101174.19
2022-08-22T05:21:58.366Z,101166.06
2022-08-22T05:24:40.943Z,101173.41
2022-08-22T05:27:16.294Z,101174.25
2022-08-22T05:29:48.737Z,101177.25
2022-08-22T05:32:26.285Z,101184.41
2022-08-22T05:34:59.551Z,101179.59
2022-08-22T05:37:41.774Z,101177.78
2022-08-22T05:40:10.841Z,101182.19
2022-08-22T05:42:38.071Z,101186.72
2022-08-22T05:45:11.572Z,101189.78
2022-08-22T05:47:44.688Z,101189.00
2022-08-22T05:50:13.969Z,101180.47
2022-08-22T05:53:08.000Z,101182.81
2022-08-22T05:55:57.311Z,101192.50
2022-08-22T05:58:38.868Z,101186.38
2022-08-22T06:01:14.842Z,101191.41
2022-08-22T06:04:07.977Z,101193.47
2022-08-22T06:06:41.827Z,101194.19
2022-08-22T06:09:24.631Z,101201.59
2022-08-22T06:12:16.497Z,101200.78
2022-08-22T06:15:11.825Z,101196.22
2022-08-22T06:17:48.134Z,101200.56
2022-08-22T06:20:26.426Z,101207.09
2022-08-22T06:23:00.535Z,101206.84
2022-08-22T06:25:37.904Z,101213.25
2022-08-22T06:28:09.562Z,101213.25
2022-08-22T06:30:39.670Z,101206.00
2022-08-22T06:33:16.353Z,101211.56
2022-08-22T06:36:11.890Z,101208.94
2022-08-22T06:38:53.901Z,101217.31
2022-08-22T06:41:22.438Z,101223.50
2022-08-22T06:43:54.952Z,101217.31
2022-08-22T06:46:26.377Z,101224.00
2022-08-22T06:48:56.136Z,101224.41
2022-08-22T06:51:29.689Z,101224.28
2022-08-22T06:54:01.913Z,101224.31
2022-08-22T06:56:35.750Z,101230.16
2022-08-22T06:59:07.983Z,101231.69
2022-08-22T07:01:45.658Z,101237.97
2022-08-22T07:04:12.824Z,101226.13
2022-08-22T07:06:44.264Z,101224.03
2022-08-22T07:09:32.657Z,101224.00
2022-08-22T07:12:03.116Z,101240.75
2022-08-22T07:14:41.030Z,101229.69
2022-08-22T07:17:15.912Z,101235.53
2022-08-22T07:19:54.309Z,101233.50
2022-08-22T07:22:32.590Z,101238.75
2022-08-22T07:25:09.027Z,101238.69
2022-08-22T07:27:45.125Z,101243.03
2022-08-22T07:30:27.988Z,101242.00
2022-08-22T07:33:25.232Z,101238.88
2022-08-22T07:36:01.988Z,101242.31
2022-08-22T07:38:45.615Z,101243.09
2022-08-22T07:41:12.406Z,101252.25
2022-08-22T07:43:47.941Z,101249.22
2022-08-22T07:46:14.555Z,101252.28
2022-08-22T07:49:12.140Z,101249.75
2022-08-22T07:51:45.201Z,101249.06
2022-08-22T07:54:17.177Z,101251.66
2022-08-22T07:56:57.816Z,101250.22
2022-08-22T07:59:27.257Z,101238.75
2022-08-22T08:01:57.550Z,101238.81
2022-08-22T08:04:30.492Z,101245.50
2022-08-22T08:07:00.796Z,101243.59
2022-08-22T08:09:33.147Z,101243.31
2022-08-22T08:12:02.745Z,101245.41
2022-08-22T08:14:31.281Z,101248.63
2022-08-22T08:16:57.942Z,101247.63
2022-08-22T08:19:25.451Z,101252.81
2022-08-22T08:21:55.437Z,101255.00
2022-08-22T08:24:43.203Z,101251.13
2022-08-22T08:27:36.904Z,101253.13
2022-08-22T08:30:16.547Z,101247.75
2022-08-22T08:32:48.909Z,101237.88
2022-08-22T08:35:23.580Z,101247.56
2022-08-22T08:38:09.596Z,101248.72
2022-08-22T08:40:56.487Z,101244.19
2022-08-22T08:43:51.195Z,101245.00
2022-08-22T08:46:55.124Z,101234.31
2022-08-22T08:49:35.221Z,101229.63
2022-08-22T08:52:26.500Z,101230.94
2022-08-22T08:55:40.889Z,101236.75
2022-08-22T08:58:29.310Z,101237.09
2022-08-22T09:01:11.486Z,101234.84
2022-08-22T09:04:15.675Z,101233.69
2022-08-22T09:06:56.745Z,101229.06
2022-08-22T09:09:46.346Z,101231.16
2022-08-22T09:12:52.225Z,101239.16
2022-08-22T09:16:05.280Z,101237.75
2022-08-22T09:19:20.662Z,101238.25
2022-08-22T09:22:14.285Z,101237.22
2022-08-22T09:25:06.299Z,101238.09
2022-08-22T09:27:38.976Z,101241.09
2022-08-22T09:30:11.660Z,101235.41
2022-08-22T09:33:06.393Z,101236.44
2022-08-22T09:35:38.848Z,101240.69
2022-08-22T09:38:20.780Z,101251.13
2022-08-22T09:41:00.208Z,101244.38
2022-08-22T09:43:46.576Z,101247.78
2022-08-22T09:46:32.154Z,101249.78
2022-08-22T09:49:13.402Z,101243.97
2022-08-22T09:51:50.636Z,101249.22
2022-08-22T09:54:33.664Z,101247.94
2022-08-22T09:57:00.847Z,101247.28
2022-08-22T10:00:05.168Z,101237.50
2022-08-22T10:02:44.127Z,101239.94
2022-08-22T10:05:40.658Z,101244.84
2022-08-22T10:08:31.737Z,101236.25
2022-08-22T10:11:13.536Z,101248.53
2022-08-22T10:14:22.273Z,101246.19
2022-08-22T10:17:08.147Z,101243.34
2022-08-22T10:20:14.039Z,101245.34
2022-08-22T10:23:00.853Z,101244.53
2022-08-22T10:25:42.111Z,101251.03
2022-08-22T10:28:25.184Z,101248.97
2022-08-22T10:31:09.873Z,101252.44
2022-08-22T10:33:47.469Z,101252.13
2022-08-22T10:36:21.006Z,101249.88
2022-08-22T10:38:57.861Z,101252.22
2022-08-22T10:41:58.705Z,101244.50
2022-08-22T10:44:34.645Z,101250.91
2022-08-22T10:47:13.609Z,101232.06
2022-08-22T10:49:52.148Z,101236.53
2022-08-22T10:52:26.972Z,101234.97
2022-08-22T10:55:09.739Z,101232.16
2022-08-22T10:57:52.131Z,101239.66
2022-08-22T11:00:46.609Z,101237.16
2022-08-22T11:03:28.245Z,101242.03
2022-08-22T11:06:00.517Z,101235.94
2022-08-22T11:08:49.009Z,101248.06
2022-08-22T11:11:32.941Z,101240.41
2022-08-22T11:14:37.196Z,101237.34
2022-08-22T11:17:30.917Z,101229.66
2022-08-22T11:20:19.438Z,101243.81
2022-08-22T11:23:37.554Z,101231.94
2022-08-22T11:26:33.737Z,101236.34
2022-08-22T11:29:26.697Z,101233.75
2022-08-22T11:32:32.146Z,101232.00
2022-08-22T11:35:01.461Z,101224.56
2022-08-22T11:37:43.266Z,101223.63
2022-08-22T11:40:32.301Z,101233.78
2022-08-22T11:43:32.755Z,101230.78
2022-08-22T11:46:14.069Z,101226.53
2022-08-22T11:49:10.845Z,101235.13
2022-08-22T11:51:49.732Z,101233.19
2022-08-22T11:54:42.286Z,101232.09
2022-08-22T11:57:20.689Z,101231.13
2022-08-22T12:00:13.058Z,101225.63
2022-08-22T12:02:57.611Z,101229.53
2022-08-22T12:05:32.959Z,101223.03
2022-08-22T12:08:21.268Z,101224.94
2022-08-22T12:11:08.389Z,101218.94
2022-08-22T12:14:06.593Z,101213.38
2022-08-22T12:16:42.606Z,101211.41
2022-08-22T12:19:17.766Z,101206.97
2022-08-22T12:21:49.701Z,101208.84
2022-08-22T12:24:22.579Z,101212.53
2022-08-22T12:27:06.520Z,101214.31
2022-08-22T12:29:59.800Z,101210.63
2022-08-22T12:32:45.796Z,101209.03
2022-08-22T12:35:29.698Z,101205.78
2022-08-22T12:38:27.894Z,101208.56
2022-08-22T12:41:35.410Z,101205.44
2022-08-22T12:44:02.148Z,101197.53
2022-08-22T12:46:57.293Z,101201.47
2022-08-22T12:49:45.010Z,101189.78
2022-08-22T12:52:28.222Z,101196.38
2022-08-22T12:55:04.104Z,101196.69
2022-08-22T12:57:59.380Z,101193.28
2022-08-22T13:00:34.885Z,101197.91
2022-08-22T13:03:32.143Z,101188.44
2022-08-22T13:06:05.363Z,101188.16
2022-08-22T13:08:40.390Z,101184.34
2022-08-22T13:11:22.256Z,101192.25
2022-08-22T13:13:56.410Z,101187.03
2022-08-22T13:16:26.525Z,101177.34
2022-08-22T13:18:57.695Z,101178.16
2022-08-22T13:21:36.039Z,101183.16
2022-08-22T13:24:38.744Z,101189.41
2022-08-22T13:27:15.778Z,101182.41
2022-08-22T13:29:51.516Z,101184.19
2022-08-22T13:32:26.358Z,101187.75
2022-08-22T13:34:57.158Z,101179.81
2022-08-22T13:37:44.363Z,101186.78
2022-08-22T13:40:21.750Z,101184.63
2022-08-22T13:42:54.564Z,101179.50
2022-08-22T13:45:29.329Z,101188.84
2022-08-22T13:48:03.794Z,101178.97
2022-08-22T13:50:37.459Z,101179.66
2022-08-22T13:53:39.095Z,101183.78
2022-08-22T13:56:15.618Z,101178.31
2022-08-22T13:58:50.221Z,101180.56
2022-08-22T14:01:25.542Z,101171.84
2022-08-22T14:04:32.313Z,101185.66
2022-08-22T14:07:03.365Z,101174.91
2022-08-22T14:09:49.157Z,101178.38
2022-08-22T14:12:56.464Z,101182.19
2022-08-22T14:15:32.273Z,101177.19
2022-08-22T14:18:15.889Z,101172.53
2022-08-22T14:20:47.518Z,101173.03
2022-08-22T14:23:27.035Z,101170.47
2022-08-22T14:25:55.537Z,101171.50
2022-08-22T14:28:31.332Z,101163.63
2022-08-22T14:31:14.320Z,101170.84
2022-08-22T14:33:52.763Z,101164.53
2022-08-22T14:36:23.608Z,101169.56
2022-08-22T14:39:02.311Z,101169.91
2022-08-22T14:41:55.653Z,101169.28
2022-08-22T14:44:52.764Z,101161.41
2022-08-22T14:48:09.999Z,101168.69
2022-08-22T14:50:43.621Z,101165.66
2022-08-22T14:53:25.020Z,101166.38
2022-08-22T14:55:58.101Z,101163.41
2022-08-22T14:58:26.230Z,101167.38
2022-08-22T15:00:56.620Z,101170.81
2022-08-22T15:03:29.711Z,101172.66
2022-08-22T15:06:01.606Z,101166.09
2022-08-22T15:08:49.892Z,101172.78
2022-08-22T15:11:22.476Z,101172.44
2022-08-22T15:14:12.535Z,101168.38
2022-08-22T15:16:57.099Z,101167.44
2022-08-22T15:19:33.024Z,101169.94
2022-08-22T15:22:15.079Z,101166.78
2022-08-22T15:24:47.433Z,101170.97
2022-08-22T15:27:19.526Z,101171.91
2022-08-22T15:29:55.579Z,101171.84
2022-08-22T15:32:27.820Z,101175.94
2022-08-22T15:35:13.871Z,101165.59
2022-08-22T15:38:05.263Z,101167.94
2022-08-22T15:40:35.056Z,101170.75
2022-08-22T15:43:22.627Z,101170.75
2022-08-22T15:46:07.153Z,101167.72
2022-08-22T15:48:39.157Z,101163.81
2022-08-22T15:51:13.531Z,101162.34
2022-08-22T15:54:03.368Z,101169.94
2022-08-22T15:57:18.517Z,101166.00
2022-08-22T15:59:54.037Z,101169.75
2022-08-22T16:02:34.887Z,101174.34
2022-08-22T16:05:22.354Z,101167.38
2022-08-22T16:07:58.254Z,101168.56
2022-08-22T16:10:24.938Z,101163.19
2022-08-22T16:13:13.697Z,101168.00
2022-08-22T16:15:54.387Z,101167.91
2022-08-22T16:18:37.104Z,101159.81
2022-08-22T16:21:11.172Z,101159.03
2022-08-22T16:23:49.937Z,101165.25
2022-08-22T16:26:28.700Z,101172.78
2022-08-22T16:29:14.781Z,101174.97
2022-08-22T16:31:44.532Z,101169.16
2022-08-22T16:34:17.411Z,101163.38
2022-08-22T16:36:47.268Z,101171.22
2022-08-22T16:39:23.110Z,101165.25
2022-08-22T16:42:22.329Z,101164.72
2022-08-22T16:44:50.187Z,101174.41
2022-08-22T16:47:43.038Z,101174.78
2022-08-22T16:50:20.995Z,101175.75
2022-08-22T16:53:08.993Z,101167.63
2022-08-22T16:55:58.395Z,101173.28
2022-08-22T16:59:06.046Z,101184.13
2022-08-22T17:02:07.116Z,101172.78
2022-08-22T17:04:56.808Z,101177.78
2022-08-22T17:07:57.267Z,101175.09
2022-08-22T17:10:34.214Z,101169.13
2022-08-22T17:13:06.888Z,101169.94
2022-08-22T17:16:02.030Z,101162.94
2022-08-22T17:18:31.582Z,101173.13
2022-08-22T17:21:51.661Z,101179.75
2022-08-22T17:24:40.732Z,101180.97
2022-08-22T17:27:16.095Z,101183.44
2022-08-22T17:30:07.191Z,101183.59
2022-08-22T17:32:44.520Z,101180.75
2022-08-22T17:35:24.946Z,101182.75
2022-08-22T17:38:17.191Z,101188.22
2022-08-22T17:41:01.833Z,101185.38
2022-08-22T17:43:58.505Z,101192.34
2022-08-22T17:46:31.076Z,101193.13
2022-08-22T17:49:16.561Z,101198.38
2022-08-22T17:51:55.007Z,101198.31
2022-08-22T17:54:33.148Z,101200.97
2022-08-22T17:57:05.716Z,101211.09
2022-08-22T17:59:51.330Z,101214.00
2022-08-22T18:02:42.806Z,101220.59
2022-08-22T18:05:28.580Z,101216.03
2022-08-22T18:11:40.190Z,101226.97
2022-08-22T18:14:13.144Z,101223.75
2022-08-22T18:16:47.180Z,101223.75
2022-08-22T18:19:44.393Z,101217.53
2022-08-22T18:22:22.329Z,101220.56
2022-08-22T18:25:01.104Z,101221.78
2022-08-22T18:27:38.397Z,101227.41
2022-08-22T18:30:20.439Z,101236.66
2022-08-22T18:33:01.961Z,101229.25
2022-08-22T18:35:39.563Z,101226.38
2022-08-22T18:38:20.006Z,101230.44
2022-08-22T18:40:57.301Z,101227.66
2022-08-22T18:43:40.112Z,101237.09
2022-08-22T18:46:26.625Z,101230.63
2022-08-22T18:49:14.102Z,101230.66
2022-08-22T18:51:41.719Z,101238.97
2022-08-22T18:54:08.295Z,101236.44
2022-08-22T18:56:49.916Z,101232.47
2022-08-22T18:59:40.815Z,101234.91
2022-08-22T19:02:42.162Z,101238.09
2022-08-22T19:05:33.980Z,101245.09
2022-08-22T19:08:01.003Z,101249.13
2022-08-22T19:11:05.154Z,101250.34
2022-08-22T19:13:37.983Z,101249.13
2022-08-22T19:16:41.926Z,101255.75
2022-08-22T19:19:17.665Z,101254.72
2022-08-22T19:22:23.388Z,101258.78
2022-08-22T19:25:19.400Z,101257.59
2022-08-22T19:28:08.964Z,101263.34
2022-08-22T19:30:52.513Z,101258.34
2022-08-22T19:33:34.653Z,101266.22
2022-08-22T19:36:31.326Z,101265.16
2022-08-22T19:38:58.040Z,101260.56
2022-08-22T19:41:43.809Z,101261.66
2022-08-22T19:44:20.808Z,101255.03
2022-08-22T19:47:03.285Z,101251.56
2022-08-22T19:49:37.639Z,101262.66
2022-08-22T19:52:12.114Z,101254.56
2022-08-22T19:54:57.211Z,101260.63
2022-08-22T19:57:54.037Z,101255.19
2022-08-22T20:00:42.698Z,101254.75
2022-08-22T20:03:19.018Z,101253.41
2022-08-22T20:06:40.847Z,101255.91
2022-08-22T20:09:25.601Z,101261.97
2022-08-22T20:12:13.251Z,101266.81
2022-08-22T20:14:44.572Z,101268.34
2022-08-22T20:17:11.236Z,101275.88
2022-08-22T20:19:41.011Z,101274.09
2022-08-22T20:22:18.074Z,101266.97
2022-08-22T20:24:50.702Z,101264.72
2022-08-22T20:27:22.874Z,101267.16
2022-08-22T20:30:03.500Z,101268.69
2022-08-22T20:32:37.959Z,101268.00
2022-08-22T20:35:06.405Z,101257.94
2022-08-22T20:38:05.139Z,101264.94
2022-08-22T20:40:54.681Z,101259.63
2022-08-22T20:43:52.175Z,101273.88
2022-08-22T20:46:46.291Z,101270.66
2022-08-22T20:49:26.168Z,101265.81
2022-08-22T20:51:54.918Z,101269.03
2022-08-22T20:54:25.197Z,101274.34
2022-08-22T20:56:56.055Z,101275.75
2022-08-22T20:59:41.862Z,101268.16
2022-08-22T21:02:15.142Z,101267.06
2022-08-22T21:04:48.260Z,101266.78
2022-08-22T21:07:29.237Z,101256.31
2022-08-22T21:10:22.642Z,101265.84
2022-08-22T21:13:11.304Z,101262.59
2022-08-22T21:15:44.658Z,101260.66
2022-08-22T21:18:14.205Z,101261.63
2022-08-22T21:20:42.030Z,101267.06
2022-08-22T21:23:15.581Z,101263.03
2022-08-22T21:26:01.509Z,101264.88
2022-08-22T21:28:32.272Z,101277.81
2022-08-22T21:31:07.739Z,101283.56
2022-08-22T21:33:34.789Z,101280.66
2022-08-22T21:36:02.556Z,101284.97
2022-08-22T21:38:29.465Z,101279.94
2022-08-22T21:41:02.091Z,101284.00
2022-08-22T21:43:36.953Z,101282.59
2022-08-22T21:46:06.165Z,101283.88
2022-08-22T21:48:40.878Z,101288.47
2022-08-22T21:51:28.465Z,101290.31
2022-08-22T21:54:20.077Z,101297.84
2022-08-22T21:56:48.289Z,101293.78
2022-08-22T21:59:49.312Z,101289.06
2022-08-22T22:02:39.671Z,101289.47
2022-08-22T22:05:17.856Z,101287.41
2022-08-22T22:07:46.880Z,101286.16
2022-08-22T22:10:17.405Z,101288.50
2022-08-22T22:12:47.269Z,101279.00
2022-08-22T22:15:18.041Z,101281.38
2022-08-22T22:17:45.253Z,101284.16
2022-08-22T22:20:15.906Z,101290.16
2022-08-22T22:22:45.900Z,101285.59
2022-08-22T22:25:41.291Z,101287.50
2022-08-22T22:28:22.055Z,101273.44
2022-08-22T22:30:51.523Z,101280.16
2022-08-22T22:33:22.405Z,101269.69
2022-08-22T22:35:50.833Z,101270.22
2022-08-22T22:38:21.973Z,101263.25
2022-08-22T22:40:50.981Z,101261.72
2022-08-22T22:43:17.698Z,101265.34
2022-08-22T22:45:44.551Z,101263.66
2022-08-22T22:48:11.757Z,101267.28
2022-08-22T22:50:44.997Z,101261.72
2022-08-22T22:53:12.197Z,101264.38
2022-08-22T22:56:00.271Z,101262.53
2022-08-22T22:58:28.663Z,101270.66
2022-08-22T23:00:56.045Z,101268.97
2022-08-22T23:03:23.597Z,101272.75
2022-08-22T23:05:50.563Z,101267.28
2022-08-22T23:08:18.127Z,101269.25
2022-08-22T23:10:44.746Z,101270.94
2022-08-22T23:13:11.490Z,101272.59
2022-08-22T23:15:38.195Z,101271.19
2022-08-22T23:18:04.941Z,101263.25
2022-08-22T23:20:31.857Z,101280.53
2022-08-22T23:22:59.710Z,101272.59
2022-08-22T23:25:27.084Z,101269.94
2022-08-22T23:27:54.459Z,101268.97
2022-08-22T23:30:22.252Z,101265.91
2022-08-22T23:32:49.078Z,101266.88
2022-08-22T23:35:15.961Z,101261.16
2022-08-22T23:37:42.639Z,101268.13
2022-08-22T23:40:10.333Z,101272.44
2022-08-22T23:42:37.071Z,101265.63
2022-08-22T23:45:04.554Z,101262.16
2022-08-22T23:47:31.362Z,101263.53
2022-08-22T23:49:58.122Z,101263.66
2022-08-22T23:52:25.703Z,101266.31
2022-08-22T23:54:55.643Z,101269.25
2022-08-22T23:57:26.293Z,101268.28
2022-08-22T23:59:57.489Z,101266.88
